createdAt,value
2022-08-26T00:00:38.674Z,100673.73
2022-08-26T00:04:06.878Z,100669.69
2022-08-26T00:07:34.025Z,100667.11
2022-08-26T00:11:01.260Z,100665.71
2022-08-26T00:14:30.900Z,100661.23
2022-08-26T00:17:59.234Z,100660.98
2022-08-26T00:21:26.830Z,100659.69
2022-08-26T00:24:54.495Z,100659.40
2022-08-26T00:28:21.897Z,100656.73
2022-08-26T00:31:51.139Z,100654.42
2022-08-26T00:35:19.312Z,100648.43
2022-08-26T00:38:46.574Z,100643.80
2022-08-26T00:42:14.347Z,100640.32
2022-08-26T00:45:46.935Z,100640.97
2022-08-26T00:49:18.663Z,100641.30
2022-08-26T00:52:48.559Z,100642.30
2022-08-26T00:56:24.030Z,100637.98
2022-08-26T00:59:58.495Z,100636.45
2022-08-26T01:03:28.254Z,100638.77
2022-08-26T01:07:20.375Z,100634.35
2022-08-26T01:10:48.593Z,100634.35
2022-08-26T01:14:21.239Z,100630.36
2022-08-26T01:17:52.913Z,100629.08
2022-08-26T01:21:28.204Z,100630.98
2022-08-26T01:24:57.097Z,100634.58
2022-08-26T01:28:29.719Z,100635.98
2022-08-26T01:31:59.429Z,100629.58
2022-08-26T01:35:27.055Z,100641.06
2022-08-26T01:38:54.965Z,100639.25
2022-08-26T01:42:23.756Z,100638.45
2022-08-26T01:45:57.185Z,100638.11
2022-08-26T01:49:26.149Z,100640.48
2022-08-26T01:52:55.202Z,100637.05
2022-08-26T01:56:23.080Z,100635.52
2022-08-26T01:59:51.152Z,100638.94
2022-08-26T02:03:22.058Z,100635.27
2022-08-26T02:06:51.323Z,100635.86
2022-08-26T02:10:19.798Z,100629.56
2022-08-26T02:13:51.248Z,100625.98
2022-08-26T02:17:19.324Z,100625.23
2022-08-26T02:20:51.493Z,100619.27
2022-08-26T02:24:21.630Z,100618.38
2022-08-26T02:27:49.772Z,100607.25
2022-08-26T02:31:17.008Z,100614.66
2022-08-26T02:34:44.640Z,100612.77
2022-08-26T02:38:12.416Z,100602.96
2022-08-26T02:41:45.226Z,100610.47
2022-08-26T02:45:13.789Z,100609.52
2022-08-26T02:48:47.298Z,100606.23
2022-08-26T02:52:17.218Z,100605.28
2022-08-26T02:55:46.018Z,100605.02
2022-08-26T02:59:15.932Z,100601.00
2022-08-26T03:02:43.564Z,100602.56
2022-08-26T03:06:11.880Z,100602.86
2022-08-26T03:09:38.746Z,100597.56
2022-08-26T03:13:07.607Z,100592.95
2022-08-26T03:16:37.381Z,100593.25
2022-08-26T03:20:08.940Z,100594.70
2022-08-26T03:23:43.296Z,100600.88
2022-08-26T03:27:10.904Z,100599.88
2022-08-26T03:30:45.111Z,100599.48
2022-08-26T03:34:13.210Z,100594.95
2022-08-26T03:37:41.527Z,100595.54
2022-08-26T03:41:11.114Z,100597.96
2022-08-26T03:44:41.958Z,100600.36
2022-08-26T03:48:09.846Z,100598.89
2022-08-26T03:51:38.659Z,100599.94
2022-08-26T03:55:07.221Z,100598.94
2022-08-26T03:58:35.622Z,100598.45
2022-08-26T04:02:02.923Z,100599.15
2022-08-26T04:05:36.465Z,100603.69
2022-08-26T04:09:08.558Z,100602.92
2022-08-26T04:12:38.257Z,100601.02
2022-08-26T04:16:06.358Z,100601.26
2022-08-26T04:19:33.909Z,100602.48
2022-08-26T04:23:01.000Z,100602.70
2022-08-26T04:26:28.769Z,100601.17
2022-08-26T04:29:56.203Z,100603.48
2022-08-26T04:33:32.281Z,100597.86
2022-08-26T04:37:02.092Z,100597.92
2022-08-26T04:40:29.527Z,100599.13
2022-08-26T04:43:57.327Z,100603.05
2022-08-26T04:47:30.407Z,100601.08
2022-08-26T04:51:00.452Z,100604.18
2022-08-26T04:54:27.906Z,100603.61
2022-08-26T04:57:56.867Z,100609.96
2022-08-26T05:01:29.357Z,100606.63
2022-08-26T05:04:57.874Z,100607.50
2022-08-26T05:08:26.167Z,100607.09
2022-08-26T05:11:55.520Z,100609.13
2022-08-26T05:15:23.860Z,100608.98
2022-08-26T05:18:55.479Z,100611.45
2022-08-26T05:22:23.199Z,100613.24
2022-08-26T05:25:55.821Z,100611.29
2022-08-26T05:29:26.722Z,100617.73
2022-08-26T05:32:55.477Z,100623.11
2022-08-26T05:36:24.476Z,100622.98
2022-08-26T05:39:54.857Z,100619.96
2022-08-26T05:43:29.583Z,100617.23
2022-08-26T05:46:58.590Z,100613.42
2022-08-26T05:50:28.096Z,100614.40
2022-08-26T05:54:05.708Z,100612.40
2022-08-26T05:57:40.382Z,100612.36
2022-08-26T06:01:16.138Z,100613.04
2022-08-26T06:04:44.478Z,100614.49
2022-08-26T06:08:15.489Z,100616.61
2022-08-26T06:11:47.536Z,100617.23
2022-08-26T06:15:15.306Z,100610.68
2022-08-26T06:18:44.995Z,100611.61
2022-08-26T06:22:25.892Z,100611.05
2022-08-26T06:25:53.727Z,100614.34
2022-08-26T06:29:24.854Z,100614.07
2022-08-26T06:33:02.085Z,100616.20
2022-08-26T06:36:33.238Z,100613.77
2022-08-26T06:40:02.891Z,100614.07
2022-08-26T06:43:33.588Z,100615.98
2022-08-26T06:47:01.228Z,100618.47
2022-08-26T06:50:28.012Z,100616.45
2022-08-26T06:53:57.440Z,100617.21
2022-08-26T06:57:25.314Z,100620.19
2022-08-26T07:00:52.254Z,100619.06
2022-08-26T07:04:22.337Z,100614.34
2022-08-26T07:07:54.480Z,100615.63
2022-08-26T07:11:22.113Z,100610.12
2022-08-26T07:14:52.104Z,100607.44
2022-08-26T07:18:22.957Z,100601.84
2022-08-26T07:21:50.997Z,100604.59
2022-08-26T07:25:19.330Z,100608.02
2022-08-26T07:28:47.846Z,100608.10
2022-08-26T07:32:17.271Z,100603.08
2022-08-26T07:35:46.163Z,100598.46
2022-08-26T07:39:13.967Z,100591.48
2022-08-26T07:42:40.763Z,100589.35
2022-08-26T07:46:16.291Z,100588.83
2022-08-26T07:49:43.350Z,100583.38
2022-08-26T07:53:11.973Z,100583.83
2022-08-26T07:56:41.388Z,100584.02
2022-08-26T08:00:14.809Z,100584.38
2022-08-26T08:03:43.927Z,100585.92
2022-08-26T08:07:13.015Z,100584.75
2022-08-26T08:10:48.930Z,100587.80
2022-08-26T08:14:22.067Z,100589.15
2022-08-26T08:17:51.693Z,100587.52
2022-08-26T08:21:24.322Z,100588.19
2022-08-26T08:24:55.888Z,100587.11
2022-08-26T08:28:22.976Z,100585.23
2022-08-26T08:31:56.500Z,100585.17
2022-08-26T08:35:26.674Z,100577.61
2022-08-26T08:38:53.510Z,100571.41
2022-08-26T08:42:45.955Z,100568.84
2022-08-26T08:46:19.657Z,100571.13
2022-08-26T08:49:55.940Z,100568.88
2022-08-26T08:53:31.672Z,100568.83
2022-08-26T08:57:07.703Z,100564.40
2022-08-26T09:00:48.105Z,100563.56
2022-08-26T09:04:51.991Z,100567.63
2022-08-26T09:08:24.388Z,100571.20
2022-08-26T09:11:52.138Z,100571.85
2022-08-26T09:15:24.645Z,100567.30
2022-08-26T09:19:05.769Z,100567.86
2022-08-26T09:22:35.798Z,100563.22
2022-08-26T09:26:06.165Z,100559.55
2022-08-26T09:29:46.216Z,100562.41
2022-08-26T09:33:28.863Z,100562.33
2022-08-26T09:37:04.570Z,100554.23
2022-08-26T09:40:37.060Z,100551.98
2022-08-26T09:44:17.202Z,100546.81
2022-08-26T09:47:56.335Z,100545.79
2022-08-26T09:51:33.605Z,100543.05
2022-08-26T09:55:13.559Z,100532.38
2022-08-26T09:58:43.534Z,100535.01
2022-08-26T10:02:28.590Z,100532.95
2022-08-26T10:06:05.123Z,100529.58
2022-08-26T10:09:37.492Z,100529.73
2022-08-26T10:13:07.354Z,100522.00
2022-08-26T10:16:48.814Z,100524.77
2022-08-26T10:20:25.222Z,100523.83
2022-08-26T10:23:56.990Z,100522.02
2022-08-26T10:27:35.471Z,100522.73
2022-08-26T10:31:06.812Z,100518.33
2022-08-26T10:34:35.121Z,100515.40
2022-08-26T10:38:11.618Z,100515.70
2022-08-26T10:41:45.090Z,100513.05
2022-08-26T10:45:15.247Z,100512.77
2022-08-26T10:48:48.921Z,100511.70
2022-08-26T10:52:23.506Z,100505.88
2022-08-26T10:56:15.572Z,100504.16
2022-08-26T11:00:01.709Z,100500.66
2022-08-26T11:03:40.878Z,100496.09
2022-08-26T11:07:46.307Z,100495.67
2022-08-26T11:11:13.740Z,100493.14
2022-08-26T11:14:53.553Z,100486.61
2022-08-26T11:22:12.032Z,100484.37
2022-08-26T11:26:35.462Z,100477.59
2022-08-26T11:30:03.735Z,100475.91
2022-08-26T11:33:54.162Z,100469.59
2022-08-26T11:37:23.743Z,100471.67
2022-08-26T11:41:20.117Z,100466.13
2022-08-26T11:44:49.691Z,100464.41
2022-08-26T11:48:21.097Z,100469.54
2022-08-26T11:51:48.454Z,100467.38
2022-08-26T11:55:19.209Z,100468.09
2022-08-26T11:58:48.484Z,100458.20
2022-08-26T12:02:19.829Z,100453.21
2022-08-26T12:05:50.356Z,100454.18
2022-08-26T12:09:24.527Z,100450.80
2022-08-26T12:12:59.278Z,100450.41
2022-08-26T12:16:28.904Z,100443.45
2022-08-26T12:19:57.207Z,100440.77
2022-08-26T12:23:37.163Z,100439.34
2022-08-26T12:27:19.278Z,100435.91
2022-08-26T12:31:02.103Z,100431.79
2022-08-26T12:34:28.456Z,100431.52
2022-08-26T12:37:58.418Z,100430.21
2022-08-26T12:41:49.317Z,100424.91
2022-08-26T12:45:36.362Z,100423.13
2022-08-26T12:49:54.968Z,100418.02
2022-08-26T12:53:50.961Z,100407.86
2022-08-26T12:57:18.288Z,100404.52
2022-08-26T13:00:47.833Z,100400.78
2022-08-26T13:04:36.583Z,100397.80
2022-08-26T13:08:26.265Z,100393.64
2022-08-26T13:12:02.695Z,100398.27
2022-08-26T13:15:29.642Z,100393.59
2022-08-26T13:19:04.020Z,100388.70
2022-08-26T13:22:31.766Z,100384.81
2022-08-26T13:26:00.238Z,100382.14
2022-08-26T13:29:26.993Z,100375.39
2022-08-26T13:33:02.206Z,100374.39
2022-08-26T13:36:32.300Z,100373.64
2022-08-26T13:39:59.414Z,100367.51
2022-08-26T13:43:28.361Z,100362.77
2022-08-26T13:46:57.301Z,100353.41
2022-08-26T13:50:26.502Z,100353.39
2022-08-26T13:54:00.751Z,100353.03
2022-08-26T13:57:29.023Z,100353.40
2022-08-26T14:00:59.574Z,100348.90
2022-08-26T14:04:27.597Z,100345.48
2022-08-26T14:07:59.084Z,100343.84
2022-08-26T14:11:27.384Z,100339.52
2022-08-26T14:14:55.259Z,100341.64
2022-08-26T14:18:30.685Z,100342.42
2022-08-26T14:21:59.554Z,100337.64
2022-08-26T14:25:30.090Z,100331.95
2022-08-26T14:28:57.270Z,100332.63
2022-08-26T14:32:28.060Z,100331.95
2022-08-26T14:36:18.186Z,100321.21
2022-08-26T14:39:45.743Z,100325.42
2022-08-26T14:43:14.078Z,100322.38
2022-08-26T14:46:46.128Z,100320.71
2022-08-26T14:50:16.770Z,100320.31
2022-08-26T14:54:04.291Z,100313.52
2022-08-26T14:57:32.003Z,100312.35
2022-08-26T15:01:00.112Z,100311.18
2022-08-26T15:04:34.529Z,100310.50
2022-08-26T15:08:02.970Z,100306.35
2022-08-26T15:11:30.111Z,100304.84
2022-08-26T15:14:58.290Z,100305.28
2022-08-26T15:18:26.476Z,100306.70
2022-08-26T15:21:55.705Z,100307.63
2022-08-26T15:25:25.443Z,100297.83
2022-08-26T15:28:56.918Z,100300.17
2022-08-26T15:32:27.285Z,100294.34
2022-08-26T15:35:58.106Z,100294.50
2022-08-26T15:39:27.650Z,100294.09
2022-08-26T15:43:11.308Z,100290.73
2022-08-26T15:46:43.871Z,100291.33
2022-08-26T15:50:12.685Z,100288.96
2022-08-26T15:53:41.125Z,100288.04
2022-08-26T15:57:11.450Z,100285.52
2022-08-26T16:00:46.836Z,100286.92
2022-08-26T16:04:17.989Z,100280.58
2022-08-26T16:07:45.705Z,100282.88
2022-08-26T16:11:13.904Z,100279.86
2022-08-26T16:14:42.838Z,100280.81
2022-08-26T16:18:11.944Z,100276.86
2022-08-26T16:21:42.891Z,100275.17
2022-08-26T16:25:11.954Z,100278.77
2022-08-26T16:28:40.506Z,100276.33
2022-08-26T16:32:12.549Z,100274.92
2022-08-26T16:35:44.565Z,100270.42
2022-08-26T16:39:16.438Z,100270.58
2022-08-26T16:42:45.519Z,100272.95
2022-08-26T16:46:14.441Z,100271.05
2022-08-26T16:49:47.991Z,100270.16
2022-08-26T16:53:16.359Z,100273.70
2022-08-26T16:56:44.459Z,100275.05
2022-08-26T17:00:17.167Z,100278.50
2022-08-26T17:03:45.353Z,100281.70
2022-08-26T17:07:12.625Z,100284.80
2022-08-26T17:10:40.624Z,100283.91
2022-08-26T17:14:15.617Z,100282.21
2022-08-26T17:17:45.423Z,100288.31
2022-08-26T17:21:14.273Z,100293.56
2022-08-26T17:24:47.515Z,100291.52
2022-08-26T17:28:16.618Z,100291.63
2022-08-26T17:31:46.453Z,100288.50
2022-08-26T17:35:21.586Z,100288.68
2022-08-26T17:38:49.740Z,100290.10
2022-08-26T17:42:20.439Z,100295.55
2022-08-26T17:45:53.095Z,100295.73
2022-08-26T17:49:20.586Z,100298.06
2022-08-26T17:52:49.586Z,100300.67
2022-08-26T17:56:19.866Z,100302.23
2022-08-26T18:00:00.461Z,100302.57
2022-08-26T18:03:34.196Z,100309.50
2022-08-26T18:07:02.945Z,100307.26
2022-08-26T18:10:31.616Z,100301.96
2022-08-26T18:13:59.695Z,100301.27
2022-08-26T18:17:29.456Z,100301.38
2022-08-26T18:21:01.263Z,100298.05
2022-08-26T18:24:30.617Z,100296.43
2022-08-26T18:27:58.374Z,100295.41
2022-08-26T18:31:31.698Z,100302.66
2022-08-26T18:35:01.077Z,100300.80
2022-08-26T18:38:32.370Z,100298.14
2022-08-26T18:42:00.859Z,100301.65
2022-08-26T18:45:34.447Z,100307.17
2022-08-26T18:49:04.496Z,100309.38
2022-08-26T18:52:34.692Z,100311.77
2022-08-26T18:56:02.243Z,100312.31
2022-08-26T18:59:29.677Z,100312.96
2022-08-26T19:03:01.680Z,100309.45
2022-08-26T19:06:33.086Z,100307.54
2022-08-26T19:10:05.376Z,100306.77
2022-08-26T19:13:31.809Z,100308.31
2022-08-26T19:17:02.266Z,100312.95
2022-08-26T19:20:32.372Z,100316.80
2022-08-26T19:24:03.441Z,100318.08
2022-08-26T19:27:31.400Z,100318.30
2022-08-26T19:30:59.457Z,100321.11
2022-08-26T19:34:29.845Z,100322.40
2022-08-26T19:37:57.358Z,100321.58
2022-08-26T19:41:34.164Z,100320.11
2022-08-26T19:45:18.291Z,100316.23
2022-08-26T19:48:57.862Z,100311.61
2022-08-26T19:52:29.853Z,100313.03
2022-08-26T19:55:58.199Z,100315.43
2022-08-26T19:59:29.501Z,100312.34
2022-08-26T20:02:56.974Z,100308.42
2022-08-26T20:06:24.541Z,100309.72
2022-08-26T20:09:52.827Z,100313.38
2022-08-26T20:13:22.142Z,100310.52
2022-08-26T20:16:50.089Z,100308.27
2022-08-26T20:20:39.643Z,100305.14
2022-08-26T20:24:13.258Z,100309.44
2022-08-26T20:27:42.419Z,100310.80
2022-08-26T20:31:12.452Z,100311.45
2022-08-26T20:34:43.874Z,100308.26
2022-08-26T20:38:12.792Z,100309.09
2022-08-26T20:41:45.839Z,100306.77
2022-08-26T20:45:16.207Z,100306.90
2022-08-26T20:48:48.930Z,100309.63
2022-08-26T20:52:16.682Z,100310.61
2022-08-26T20:55:51.985Z,100311.90
2022-08-26T20:59:21.769Z,100315.22
2022-08-26T21:02:53.404Z,100315.61
2022-08-26T21:06:24.361Z,100320.66
2022-08-26T21:09:59.147Z,100326.02
2022-08-26T21:13:30.748Z,100331.50
2022-08-26T21:17:05.576Z,100330.48
2022-08-26T21:20:35.363Z,100333.42
2022-08-26T21:24:03.073Z,100332.72
2022-08-26T21:27:30.781Z,100333.25
2022-08-26T21:30:59.431Z,100330.88
2022-08-26T21:34:27.838Z,100331.66
2022-08-26T21:37:55.343Z,100337.96
2022-08-26T21:41:23.981Z,100334.17
2022-08-26T21:44:55.439Z,100332.73
2022-08-26T21:48:24.014Z,100319.27
2022-08-26T21:51:59.256Z,100326.53
2022-08-26T21:55:26.543Z,100321.27
2022-08-26T21:58:55.247Z,100323.21
2022-08-26T22:02:25.635Z,100318.91
2022-08-26T22:05:52.974Z,100318.33
2022-08-26T22:09:23.355Z,100311.05
2022-08-26T22:13:00.648Z,100305.39
2022-08-26T22:16:36.465Z,100304.46
2022-08-26T22:20:05.183Z,100298.88
2022-08-26T22:23:39.637Z,100301.98
2022-08-26T22:27:07.327Z,100303.52
2022-08-26T22:30:35.834Z,100300.84
2022-08-26T22:34:03.523Z,100298.17
2022-08-26T22:37:31.006Z,100303.02
2022-08-26T22:41:00.569Z,100297.14
2022-08-26T22:44:29.409Z,100296.81
2022-08-26T22:47:59.349Z,100292.75
2022-08-26T22:51:26.485Z,100294.16
2022-08-26T22:54:55.165Z,100289.94
2022-08-26T22:58:30.198Z,100287.19
2022-08-26T23:01:58.550Z,100285.59
2022-08-26T23:05:30.406Z,100283.80
2022-08-26T23:09:12.506Z,100280.52
2022-08-26T23:12:40.551Z,100271.89
2022-08-26T23:16:11.964Z,100268.52
2022-08-26T23:19:43.182Z,100263.52
2022-08-26T23:23:11.215Z,100255.26
2022-08-26T23:26:42.912Z,100264.11
2022-08-26T23:30:14.540Z,100266.55
2022-08-26T23:34:00.279Z,100264.80
2022-08-26T23:37:29.231Z,100264.73
2022-08-26T23:41:01.492Z,100264.31
2022-08-26T23:44:30.271Z,100258.63
2022-08-26T23:47:58.236Z,100259.48
2022-08-26T23:51:57.835Z,100260.45
2022-08-26T23:55:26.861Z,100265.84
2022-08-26T23:58:54.620Z,100261.55
